Falfurrias, Brooks County Airport (KBKS)

NameBrooks County Airport
CityFalfurrias
CountryUnited States
ICAOKBKS
IATA
Altitude34 m
CoordinatesGoogle Map
Live Air TrafficLiveATC.net
METARKBKS 060455Z AUTO 16006KT 10SM CLR 21/19 A2999 RMK AO1 T02070192
2019-12-06 04:55:00 Wind: South-Southeast (160°) 3.09 m/s - Visibility: 16093.4 m - Temperature: 21 °C - Dew point: 19 °C - Humidity: 88.4% - Pressure: 1015.58 hPa
Statistics

The table below shows the detailed information of all flights to/from Falfurrias, Brooks County Airport (KBKS).